Terminal Aerodrome Forecast
Issued by NWS Wakefield, VA

Home | Current Version | Previous Version | Text Only | Print | Product List | Glossary On
Versions: 1 2 3 4 5 6 7 8 9 10 11 12 13 14 15 16 17 18 19 20 21 22 23 24
000
FTUS41 KAKQ 182359 AAA
TAFRIC
TAF AMD
KRIC 182359Z 1900/1924 20012G20KT P6SM SCT040
      TEMPO 1900/1902 VRB25G45KT 1SM TSRA SCT010 BKN030CB
     FM190200 25005KT P6SM VCSH BKN050
     FM190500 VRB03KT P6SM BKN050
     FM191200 31005KT P6SM SCT040 SCT150=

USA.gov is the U.S. government's official web portal to all federal, state and local government web resources and services.